createdAt,value
2023-04-02T00:01:23.322Z,100.00
2023-04-02T00:03:54.226Z,100.00
2023-04-02T00:06:34.173Z,100.00
2023-04-02T00:09:17.269Z,100.00
2023-04-02T00:11:48.484Z,100.00
2023-04-02T00:14:27.050Z,100.00
2023-04-02T00:16:56.885Z,100.00
2023-04-02T00:19:30.203Z,100.00
2023-04-02T00:22:00.345Z,100.00
2023-04-02T00:24:28.059Z,100.00
2023-04-02T00:26:55.875Z,100.00
2023-04-02T00:29:23.573Z,100.00
2023-04-02T00:31:52.990Z,100.00
2023-04-02T00:34:25.352Z,100.00
2023-04-02T00:36:53.425Z,100.00
2023-04-02T00:39:27.146Z,100.00
2023-04-02T00:42:14.076Z,100.00
2023-04-02T00:44:45.503Z,100.00
2023-04-02T00:47:37.252Z,100.00
2023-04-02T00:50:22.299Z,100.00
2023-04-02T00:52:52.415Z,100.00
2023-04-02T00:55:39.242Z,100.00
2023-04-02T00:58:48.859Z,100.00
2023-04-02T01:01:19.541Z,100.00
2023-04-02T01:04:01.707Z,100.00
2023-04-02T01:06:37.370Z,100.00
2023-04-02T01:09:12.560Z,100.00
2023-04-02T01:11:58.781Z,100.00
2023-04-02T01:14:37.906Z,100.00
2023-04-02T01:17:26.549Z,100.00
2023-04-02T01:20:11.520Z,100.00
2023-04-02T01:22:55.286Z,100.00
2023-04-02T01:25:25.936Z,100.00
2023-04-02T01:28:06.675Z,100.00
2023-04-02T01:30:36.550Z,100.00
2023-04-02T01:33:06.893Z,100.00
2023-04-02T01:35:44.373Z,100.00
2023-04-02T01:38:21.075Z,100.00
2023-04-02T01:41:11.532Z,100.00
2023-04-02T01:44:13.281Z,100.00
2023-04-02T01:46:42.883Z,100.00
2023-04-02T01:49:22.593Z,100.00
2023-04-02T01:51:56.261Z,100.00
2023-04-02T01:54:28.729Z,100.00
2023-04-02T01:56:57.471Z,100.00
2023-04-02T01:59:26.524Z,100.00
2023-04-02T02:02:03.470Z,100.00
2023-04-02T02:04:34.528Z,100.00
2023-04-02T02:07:04.120Z,100.00
2023-04-02T02:09:35.749Z,100.00
2023-04-02T02:12:05.261Z,100.00
2023-04-02T02:14:33.368Z,100.00
2023-04-02T02:17:03.939Z,100.00
2023-04-02T02:19:39.905Z,100.00
2023-04-02T02:22:33.082Z,100.00
2023-04-02T02:25:05.231Z,100.00
2023-04-02T02:28:04.971Z,100.00
2023-04-02T02:30:48.587Z,100.00
2023-04-02T02:33:25.450Z,100.00
2023-04-02T02:36:20.516Z,100.00
2023-04-02T02:38:51.836Z,100.00
2023-04-02T02:41:53.950Z,100.00
2023-04-02T02:44:29.775Z,100.00
2023-04-02T02:47:05.187Z,100.00
2023-04-02T02:49:39.281Z,100.00
2023-04-02T02:52:17.074Z,100.00
2023-04-02T02:54:55.123Z,100.00
2023-04-02T02:57:33.340Z,100.00
2023-04-02T03:00:05.483Z,100.00
2023-04-02T03:02:38.483Z,100.00
2023-04-02T03:05:08.184Z,100.00
2023-04-02T03:07:37.248Z,100.00
2023-04-02T03:10:47.782Z,100.00
2023-04-02T03:13:23.483Z,100.00
2023-04-02T03:15:55.993Z,100.00
2023-04-02T03:18:36.525Z,100.00
2023-04-02T03:21:31.328Z,100.00
2023-04-02T03:24:09.496Z,100.00
2023-04-02T03:26:45.841Z,100.00
2023-04-02T03:29:18.438Z,100.00
2023-04-02T03:32:25.337Z,100.00
2023-04-02T03:35:20.347Z,100.00
2023-04-02T03:38:19.956Z,100.00
2023-04-02T03:41:11.061Z,100.00
2023-04-02T03:44:03.220Z,100.00
2023-04-02T03:46:40.956Z,100.00
2023-04-02T03:49:23.620Z,100.00
2023-04-02T03:51:55.682Z,100.00
2023-04-02T03:54:23.507Z,100.00
2023-04-02T03:56:53.193Z,100.00
2023-04-02T03:59:25.205Z,100.00
2023-04-02T04:02:01.214Z,100.00
2023-04-02T04:04:31.592Z,100.00
2023-04-02T04:07:01.638Z,100.00
2023-04-02T04:09:36.975Z,100.00
2023-04-02T04:12:30.226Z,100.00
2023-04-02T04:15:15.228Z,100.00
2023-04-02T04:18:04.734Z,100.00
2023-04-02T04:20:50.425Z,100.00
2023-04-02T04:23:30.327Z,100.00
2023-04-02T04:26:09.616Z,100.00
2023-04-02T04:28:58.212Z,100.00
2023-04-02T04:31:39.427Z,100.00
2023-04-02T04:34:16.159Z,100.00
2023-04-02T04:36:54.465Z,100.00
2023-04-02T04:39:45.461Z,100.00
2023-04-02T04:42:23.987Z,100.00
2023-04-02T04:45:00.532Z,100.00
2023-04-02T04:47:59.082Z,100.00
2023-04-02T04:50:32.924Z,100.00
2023-04-02T04:53:08.476Z,100.00
2023-04-02T04:55:40.243Z,100.00
2023-04-02T04:58:32.953Z,100.00
2023-04-02T05:01:20.734Z,100.00
2023-04-02T05:04:21.429Z,100.00
2023-04-02T05:07:12.167Z,100.00
2023-04-02T05:10:12.801Z,100.00
2023-04-02T05:12:49.566Z,100.00
2023-04-02T05:15:48.694Z,100.00
2023-04-02T05:18:35.534Z,100.00
2023-04-02T05:21:44.113Z,100.00
2023-04-02T05:24:37.466Z,100.00
2023-04-02T05:27:18.627Z,100.00
2023-04-02T05:29:59.204Z,100.00
2023-04-02T05:32:34.548Z,100.00
2023-04-02T05:35:06.521Z,100.00
2023-04-02T05:37:39.689Z,100.00
2023-04-02T05:40:21.392Z,100.00
2023-04-02T05:42:52.948Z,100.00
2023-04-02T05:45:32.856Z,100.00
2023-04-02T05:48:13.041Z,100.00
2023-04-02T05:50:47.361Z,100.00
2023-04-02T05:53:25.040Z,100.00
2023-04-02T05:56:25.071Z,100.00
2023-04-02T05:59:00.776Z,100.00
2023-04-02T06:01:51.738Z,100.00
2023-04-02T06:04:53.628Z,100.00
2023-04-02T06:07:29.349Z,100.00
2023-04-02T06:10:34.972Z,100.00
2023-04-02T06:13:07.531Z,100.00
2023-04-02T06:15:39.444Z,100.00
2023-04-02T06:18:19.170Z,100.00
2023-04-02T06:20:48.193Z,100.00
2023-04-02T06:23:36.321Z,100.00
2023-04-02T06:26:25.008Z,100.00
2023-04-02T06:29:01.472Z,100.00
2023-04-02T06:31:38.941Z,100.00
2023-04-02T06:34:17.184Z,100.00
2023-04-02T06:36:55.677Z,100.00
2023-04-02T06:39:27.123Z,100.00
2023-04-02T06:42:07.334Z,100.00
2023-04-02T06:44:51.009Z,100.00
2023-04-02T06:47:42.415Z,100.00
2023-04-02T06:50:27.756Z,100.00
2023-04-02T06:52:59.813Z,100.00
2023-04-02T06:55:43.434Z,100.00
2023-04-02T06:58:11.153Z,100.00
2023-04-02T07:00:43.203Z,100.00
2023-04-02T07:03:24.108Z,100.00
2023-04-02T07:05:52.932Z,100.00
2023-04-02T07:08:21.602Z,100.00
2023-04-02T07:10:49.651Z,100.00
2023-04-02T07:13:20.059Z,100.00
2023-04-02T07:15:52.328Z,100.00
2023-04-02T07:18:27.644Z,100.00
2023-04-02T07:20:56.902Z,100.00
2023-04-02T07:23:26.379Z,100.00
2023-04-02T07:25:55.582Z,100.00
2023-04-02T07:28:23.999Z,100.00
2023-04-02T07:30:52.457Z,100.00
2023-04-02T07:33:25.800Z,100.00
2023-04-02T07:35:56.042Z,100.00
2023-04-02T07:38:24.532Z,100.00
2023-04-02T07:40:52.462Z,100.00
2023-04-02T07:43:20.463Z,100.00
2023-04-02T07:45:50.479Z,100.00
2023-04-02T07:48:18.093Z,100.00
2023-04-02T07:50:45.968Z,100.00
2023-04-02T07:53:32.422Z,100.00
2023-04-02T07:56:02.778Z,100.00
2023-04-02T07:58:32.664Z,100.00
2023-04-02T08:01:01.696Z,100.00
2023-04-02T08:03:29.692Z,100.00
2023-04-02T08:05:58.672Z,100.00
2023-04-02T08:08:26.390Z,100.00
2023-04-02T08:10:55.410Z,100.00
2023-04-02T08:13:23.156Z,100.00
2023-04-02T08:15:50.829Z,100.00
2023-04-02T08:18:23.329Z,100.00
2023-04-02T08:20:52.513Z,100.00
2023-04-02T08:23:21.612Z,100.00
2023-04-02T08:25:50.498Z,100.00
2023-04-02T08:28:18.432Z,100.00
2023-04-02T08:30:46.319Z,100.00
2023-04-02T08:33:13.944Z,100.00
2023-04-02T08:35:41.629Z,100.00
2023-04-02T08:38:14.624Z,100.00
2023-04-02T08:40:54.253Z,100.00
2023-04-02T08:43:44.051Z,100.00
2023-04-02T08:46:30.173Z,100.00
2023-04-02T08:49:01.291Z,100.00
2023-04-02T08:51:32.833Z,100.00
2023-04-02T08:54:08.807Z,100.00
2023-04-02T08:56:47.089Z,100.00
2023-04-02T08:59:30.821Z,100.00
2023-04-02T09:02:30.428Z,100.00
2023-04-02T09:05:03.145Z,100.00
2023-04-02T09:07:33.094Z,100.00
2023-04-02T09:10:01.263Z,100.00
2023-04-02T09:12:31.685Z,100.00
2023-04-02T09:14:59.274Z,100.00
2023-04-02T09:17:27.469Z,100.00
2023-04-02T09:20:21.212Z,100.00
2023-04-02T09:22:51.241Z,100.00
2023-04-02T09:25:22.289Z,100.00
2023-04-02T09:27:53.190Z,100.00
2023-04-02T09:30:40.940Z,100.00
2023-04-02T09:33:09.095Z,100.00
2023-04-02T09:35:55.865Z,100.00
2023-04-02T09:38:31.367Z,100.00
2023-04-02T09:41:00.237Z,100.00
2023-04-02T09:43:43.928Z,100.00
2023-04-02T09:46:28.566Z,100.00
2023-04-02T09:49:01.062Z,100.00
2023-04-02T09:51:34.739Z,100.00
2023-04-02T09:54:02.396Z,100.00
2023-04-02T09:56:32.841Z,100.00
2023-04-02T09:59:13.864Z,100.00
2023-04-02T10:01:44.774Z,100.00
2023-04-02T10:04:45.294Z,100.00
2023-04-02T10:07:36.795Z,100.00
2023-04-02T10:10:25.916Z,100.00
2023-04-02T10:13:00.358Z,100.00
2023-04-02T10:15:52.896Z,100.00
2023-04-02T10:18:43.468Z,100.00
2023-04-02T10:21:15.737Z,100.00
2023-04-02T10:23:43.534Z,100.00
2023-04-02T10:26:33.323Z,100.00
2023-04-02T10:29:16.895Z,100.00
2023-04-02T10:32:16.428Z,100.00
2023-04-02T10:35:05.819Z,100.00
2023-04-02T10:38:05.452Z,100.00
2023-04-02T10:40:39.539Z,100.00
2023-04-02T10:43:39.169Z,100.00
2023-04-02T10:46:09.935Z,100.00
2023-04-02T10:48:53.619Z,100.00
2023-04-02T10:51:43.008Z,100.00
2023-04-02T10:54:21.315Z,100.00
2023-04-02T10:56:53.189Z,100.00
2023-04-02T10:59:32.147Z,100.00
2023-04-02T11:02:04.157Z,100.00
2023-04-02T11:04:45.359Z,100.00
2023-04-02T11:07:24.624Z,100.00
2023-04-02T11:09:56.548Z,100.00
2023-04-02T11:12:42.084Z,100.00
2023-04-02T11:15:18.830Z,100.00
2023-04-02T11:17:47.602Z,100.00
2023-04-02T11:20:47.229Z,100.00
2023-04-02T11:23:18.645Z,100.00
2023-04-02T11:25:47.328Z,100.00
2023-04-02T11:28:28.659Z,100.00
2023-04-02T11:30:57.680Z,100.00
2023-04-02T11:33:44.261Z,100.00
2023-04-02T11:36:46.197Z,100.00
2023-04-02T11:39:33.782Z,100.00
2023-04-02T11:42:22.015Z,100.00
2023-04-02T11:44:49.642Z,100.00
2023-04-02T11:47:29.861Z,100.00
2023-04-02T11:50:01.543Z,100.00
2023-04-02T11:52:37.979Z,100.00
2023-04-02T11:55:24.342Z,100.00
2023-04-02T11:58:10.855Z,100.00
2023-04-02T12:01:14.849Z,100.00
2023-04-02T12:04:13.490Z,100.00
2023-04-02T12:06:47.379Z,100.00
2023-04-02T12:09:44.036Z,100.00
2023-04-02T12:12:31.868Z,100.00
2023-04-02T12:15:00.893Z,100.00
2023-04-02T12:17:35.552Z,100.00
2023-04-02T12:20:10.007Z,100.00
2023-04-02T12:22:54.992Z,100.00
2023-04-02T12:25:40.801Z,100.00
2023-04-02T12:28:28.599Z,100.00
2023-04-02T12:31:12.896Z,100.00
2023-04-02T12:33:42.593Z,100.00
2023-04-02T12:36:16.407Z,100.00
2023-04-02T12:38:56.452Z,100.00
2023-04-02T12:41:31.152Z,100.00
2023-04-02T12:44:00.270Z,100.00
2023-04-02T12:46:30.467Z,100.00
2023-04-02T12:49:34.699Z,100.00
2023-04-02T12:52:11.583Z,100.00
2023-04-02T12:54:57.581Z,100.00
2023-04-02T12:57:25.283Z,100.00
2023-04-02T12:59:55.046Z,100.00
2023-04-02T13:02:28.594Z,100.00
2023-04-02T13:05:01.381Z,100.00
2023-04-02T13:07:32.078Z,100.00
2023-04-02T13:10:01.739Z,100.00
2023-04-02T13:12:36.005Z,99.36
2023-04-02T13:15:17.863Z,99.84
2023-04-02T13:17:48.878Z,99.12
2023-04-02T13:20:38.107Z,97.51
2023-04-02T13:23:39.680Z,96.88
2023-04-02T13:26:24.600Z,95.36
2023-04-02T13:29:12.417Z,96.17
2023-04-02T13:31:40.362Z,97.55
2023-04-02T13:34:07.997Z,97.38
2023-04-02T13:36:37.261Z,96.93
2023-04-02T13:39:05.530Z,96.71
2023-04-02T13:41:57.154Z,96.73
2023-04-02T13:44:31.173Z,98.18
2023-04-02T13:46:59.990Z,98.12
2023-04-02T13:49:28.512Z,97.27
2023-04-02T13:51:59.305Z,95.90
2023-04-02T13:54:29.398Z,94.43
2023-04-02T13:56:57.430Z,94.57
2023-04-02T13:59:25.949Z,94.85
2023-04-02T14:01:57.731Z,94.57
2023-04-02T14:04:29.879Z,94.36
2023-04-02T14:07:27.238Z,93.90
2023-04-02T14:10:01.152Z,94.36
2023-04-02T14:12:57.634Z,93.13
2023-04-02T14:15:41.225Z,91.79
2023-04-02T14:18:30.577Z,92.32
2023-04-02T14:21:29.074Z,92.23
2023-04-02T14:24:16.354Z,91.46
2023-04-02T14:27:11.927Z,91.12
2023-04-02T14:29:58.085Z,91.52
2023-04-02T14:32:42.693Z,91.71
2023-04-02T14:35:18.803Z,91.19
2023-04-02T14:37:52.820Z,91.01
2023-04-02T14:40:53.414Z,92.56
2023-04-02T14:43:30.631Z,91.80
2023-04-02T14:46:10.277Z,90.77
2023-04-02T14:48:41.032Z,90.33
2023-04-02T14:51:22.157Z,90.50
2023-04-02T14:54:13.400Z,89.72
2023-04-02T14:56:59.560Z,90.09
2023-04-02T14:59:52.272Z,89.98
2023-04-02T15:02:34.898Z,88.84
2023-04-02T15:05:21.087Z,88.52
2023-04-02T15:08:06.433Z,90.09
2023-04-02T15:10:49.515Z,89.17
2023-04-02T15:13:22.768Z,88.37
2023-04-02T15:16:05.689Z,88.94
2023-04-02T15:18:33.754Z,87.19
2023-04-02T15:21:23.101Z,87.91
2023-04-02T15:24:13.720Z,87.44
2023-04-02T15:27:21.856Z,87.51
2023-04-02T15:29:58.538Z,87.70
2023-04-02T15:32:29.405Z,86.41
2023-04-02T15:35:21.280Z,86.39
2023-04-02T15:38:22.522Z,86.39
2023-04-02T15:41:23.576Z,85.95
2023-04-02T15:44:12.830Z,86.98
2023-04-02T15:46:59.337Z,87.42
2023-04-02T15:49:46.554Z,87.02
2023-04-02T15:52:22.911Z,85.97
2023-04-02T15:55:22.343Z,86.22
2023-04-02T15:58:17.115Z,86.72
2023-04-02T16:01:30.737Z,86.24
2023-04-02T16:04:32.522Z,86.61
2023-04-02T16:07:23.841Z,86.27
2023-04-02T16:10:14.141Z,85.60
2023-04-02T16:12:41.889Z,85.11
2023-04-02T16:15:28.610Z,85.27
2023-04-02T16:18:03.141Z,85.86
2023-04-02T16:20:34.807Z,84.27
2023-04-02T16:23:11.570Z,85.72
2023-04-02T16:25:43.587Z,85.67
2023-04-02T16:28:24.216Z,85.82
2023-04-02T16:31:13.870Z,85.73
2023-04-02T16:33:59.560Z,84.72
2023-04-02T16:36:33.346Z,83.37
2023-04-02T16:39:13.152Z,83.20
2023-04-02T16:41:56.700Z,82.47
2023-04-02T16:44:43.153Z,82.34
2023-04-02T16:47:45.202Z,83.41
2023-04-02T16:50:18.946Z,82.74
2023-04-02T16:53:03.467Z,82.92
2023-04-02T16:55:51.397Z,82.63
2023-04-02T16:58:27.755Z,82.56
2023-04-02T17:01:31.180Z,82.83
2023-04-02T17:04:14.379Z,82.16
2023-04-02T17:06:47.822Z,82.90
2023-04-02T17:09:48.843Z,82.47
2023-04-02T17:12:22.127Z,82.73
2023-04-02T17:14:57.368Z,81.77
2023-04-02T17:17:25.201Z,82.23
2023-04-02T17:19:58.648Z,82.10
2023-04-02T17:22:29.564Z,82.94
2023-04-02T17:25:00.158Z,82.33
2023-04-02T17:27:33.703Z,83.08
2023-04-02T17:30:04.215Z,83.70
2023-04-02T17:32:33.643Z,83.15
2023-04-02T17:35:22.565Z,82.90
2023-04-02T17:38:00.942Z,82.37
2023-04-02T17:40:43.020Z,82.67
2023-04-02T17:43:39.556Z,82.30
2023-04-02T17:46:23.344Z,81.78
2023-04-02T17:49:20.122Z,80.80
2023-04-02T17:52:00.876Z,80.04
2023-04-02T17:54:37.064Z,79.59
2023-04-02T17:57:31.263Z,79.65
2023-04-02T18:00:19.472Z,78.98
2023-04-02T18:02:56.209Z,78.08
2023-04-02T18:05:34.920Z,78.83
2023-04-02T18:08:18.765Z,78.72
2023-04-02T18:11:06.533Z,79.05
2023-04-02T18:14:08.119Z,79.32
2023-04-02T18:16:51.869Z,79.14
2023-04-02T18:19:25.910Z,79.05
2023-04-02T18:22:09.460Z,78.74
2023-04-02T18:25:00.647Z,78.34
2023-04-02T18:28:00.271Z,79.14
2023-04-02T18:30:38.777Z,78.31
2023-04-02T18:33:38.740Z,77.84
2023-04-02T18:36:29.180Z,77.78
2023-04-02T18:39:02.797Z,78.02
2023-04-02T18:41:52.732Z,77.58
2023-04-02T18:44:42.813Z,77.37
2023-04-02T18:47:30.289Z,77.42
2023-04-02T18:50:24.198Z,77.59
2023-04-02T18:52:51.852Z,76.94
2023-04-02T18:55:24.696Z,76.82
2023-04-02T18:57:58.981Z,76.97
2023-04-02T19:00:36.654Z,77.29
2023-04-02T19:03:10.957Z,76.68
2023-04-02T19:05:44.565Z,76.88
2023-04-02T19:08:12.338Z,77.44
2023-04-02T19:10:44.942Z,77.15
2023-04-02T19:13:18.578Z,77.68
2023-04-02T19:15:55.424Z,77.38
2023-04-02T19:18:35.486Z,77.90
2023-04-02T19:21:45.523Z,77.88
2023-04-02T19:24:23.821Z,77.94
2023-04-02T19:27:04.595Z,77.47
2023-04-02T19:29:51.111Z,78.09
2023-04-02T19:32:34.686Z,77.84
2023-04-02T19:35:08.082Z,78.30
2023-04-02T19:37:43.567Z,77.80
2023-04-02T19:40:43.278Z,78.25
2023-04-02T19:43:11.452Z,78.30
2023-04-02T19:45:40.384Z,78.56
2023-04-02T19:48:17.744Z,78.46
2023-04-02T19:50:46.562Z,78.70
2023-04-02T19:53:15.779Z,79.16
2023-04-02T19:55:44.623Z,79.15
2023-04-02T19:58:34.105Z,79.23
2023-04-02T20:01:03.238Z,79.55
2023-04-02T20:03:31.473Z,79.65
2023-04-02T20:05:59.863Z,80.15
2023-04-02T20:08:28.466Z,80.17
2023-04-02T20:10:58.621Z,79.83
2023-04-02T20:13:26.297Z,79.84
2023-04-02T20:15:54.779Z,80.01
2023-04-02T20:18:22.397Z,80.17
2023-04-02T20:20:50.237Z,80.29
2023-04-02T20:23:18.499Z,80.32
2023-04-02T20:25:54.942Z,80.65
2023-04-02T20:28:24.189Z,80.92
2023-04-02T20:30:52.732Z,80.92
2023-04-02T20:33:23.632Z,81.26
2023-04-02T20:35:52.354Z,81.02
2023-04-02T20:38:20.665Z,81.40
2023-04-02T20:40:52.758Z,81.80
2023-04-02T20:43:20.809Z,81.66
2023-04-02T20:45:56.550Z,81.63
2023-04-02T20:48:25.551Z,82.06
2023-04-02T20:50:54.209Z,81.94
2023-04-02T20:53:21.896Z,82.19
2023-04-02T20:55:49.627Z,82.43
2023-04-02T20:58:18.789Z,82.40
2023-04-02T21:00:46.419Z,82.49
2023-04-02T21:03:14.120Z,82.79
2023-04-02T21:05:46.097Z,82.63
2023-04-02T21:08:14.426Z,82.79
2023-04-02T21:10:42.047Z,82.91
2023-04-02T21:13:09.656Z,82.92
2023-04-02T21:15:42.846Z,83.05
2023-04-02T21:18:10.498Z,83.25
2023-04-02T21:20:38.106Z,83.27
2023-04-02T21:23:05.732Z,83.24
2023-04-02T21:25:33.341Z,83.42
2023-04-02T21:28:00.985Z,83.63
2023-04-02T21:30:28.698Z,83.45
2023-04-02T21:32:56.316Z,83.86
2023-04-02T21:35:23.948Z,84.02
2023-04-02T21:37:51.887Z,84.20
2023-04-02T21:40:19.788Z,84.01
2023-04-02T21:42:47.720Z,84.29
2023-04-02T21:45:15.383Z,84.17
2023-04-02T21:47:43.066Z,84.54
2023-04-02T21:50:10.741Z,84.20
2023-04-02T21:52:38.358Z,84.14
2023-04-02T21:55:06.155Z,84.53
2023-04-02T21:57:33.807Z,84.66
2023-04-02T22:00:01.429Z,84.95
2023-04-02T22:02:29.138Z,84.96
2023-04-02T22:04:57.101Z,84.96
2023-04-02T22:07:24.769Z,85.26
2023-04-02T22:09:52.375Z,84.95
2023-04-02T22:12:20.368Z,85.29
2023-04-02T22:14:47.989Z,85.16
2023-04-02T22:17:15.681Z,85.40
2023-04-02T22:19:43.861Z,85.38
2023-04-02T22:22:11.479Z,85.43
2023-04-02T22:24:39.076Z,85.33
2023-04-02T22:27:06.700Z,85.73
2023-04-02T22:29:34.305Z,85.71
2023-04-02T22:32:01.952Z,85.79
2023-04-02T22:34:29.610Z,85.70
2023-04-02T22:36:57.623Z,85.92
2023-04-02T22:39:25.455Z,85.74
2023-04-02T22:41:53.070Z,85.86
2023-04-02T22:44:20.681Z,85.92
2023-04-02T22:46:48.427Z,86.02
2023-04-02T22:49:19.351Z,86.05
2023-04-02T22:51:47.455Z,86.11
2023-04-02T22:54:15.255Z,86.22
2023-04-02T22:56:42.877Z,86.36
2023-04-02T22:59:10.746Z,86.43
2023-04-02T23:01:38.548Z,86.19
2023-04-02T23:04:06.310Z,86.54
2023-04-02T23:06:33.975Z,86.17
2023-04-02T23:09:01.660Z,86.69
2023-04-02T23:11:29.347Z,86.48
2023-04-02T23:13:58.200Z,86.85
2023-04-02T23:16:28.718Z,86.68
2023-04-02T23:18:57.070Z,87.04
2023-04-02T23:21:25.849Z,86.91
2023-04-02T23:23:53.776Z,87.21
2023-04-02T23:26:24.545Z,87.19
2023-04-02T23:28:52.227Z,87.31
2023-04-02T23:31:22.608Z,87.18
2023-04-02T23:33:52.045Z,87.67
2023-04-02T23:36:23.719Z,87.75
2023-04-02T23:38:56.782Z,87.87
2023-04-02T23:41:26.884Z,87.85
2023-04-02T23:43:56.502Z,87.74
2023-04-02T23:46:24.897Z,88.13
2023-04-02T23:48:53.287Z,88.15
2023-04-02T23:51:21.954Z,87.90
2023-04-02T23:53:50.538Z,88.19
2023-04-02T23:56:19.011Z,87.97
2023-04-02T23:58:46.625Z,88.12
